Time;durP1;ratioP1;P1;durP2;ratioP2;P2;SDS_P1;SDS_P2;PMS_P1;PMS_P2;Temp;Humidity;BMP_temperature;BMP_pressure;BME280_temperature;BME280_humidity;BME280_pressure;Samples;Min_cycle;Max_cycle;Signal;HPM_P1;HPM_P2
2022/01/05 00:00:46;;;;;;;;;;;4.40;99.90;;;;;;5071621;28;20410;-68
2022/01/05 00:03:11;;;;;;;;;;;4.40;99.90;;;;;;5053315;28;19905;-69
2022/01/05 00:05:37;;;;;;;;;;;4.30;99.90;;;;;;5071811;28;20367;-69
2022/01/05 00:08:03;;;;;;;;;;;4.30;99.90;;;;;;5071549;28;19939;-69
2022/01/05 00:10:28;;;;;;;;;;;4.30;99.90;;;;;;5071785;28;19949;-69
2022/01/05 00:12:54;;;;;;;;;;;4.30;99.90;;;;;;5071370;28;19910;-69
2022/01/05 00:15:20;;;;;;;;;;;4.30;99.90;;;;;;5071464;28;19947;-70
2022/01/05 00:17:45;;;;;;;;;;;4.30;99.90;;;;;;5071437;28;19905;-69
2022/01/05 00:20:11;;;;;;;;;;;4.30;99.90;;;;;;5071425;28;20310;-70
2022/01/05 00:22:36;;;;;;;;;;;4.20;99.90;;;;;;5071026;28;19912;-68
2022/01/05 00:25:03;;;;;;;;;;;4.20;99.90;;;;;;5071406;28;20056;-69
2022/01/05 00:27:28;;;;;;;;;;;4.20;99.90;;;;;;5071216;28;19905;-68
2022/01/05 00:29:53;;;;;;;;;;;4.20;99.90;;;;;;5071334;28;19911;-68
2022/01/05 00:32:19;;;;;;;;;;;4.10;99.90;;;;;;5052853;28;20039;-68
2022/01/05 00:34:45;;;;;;;;;;;4.10;99.90;;;;;;5053179;28;19908;-68
2022/01/05 00:37:10;;;;;;;;;;;4.10;99.90;;;;;;5053137;28;20372;-68
2022/01/05 00:39:36;;;;;;;;;;;4.10;99.90;;;;;;5071294;28;19912;-68
2022/01/05 00:42:02;;;;;;;;;;;4.10;99.90;;;;;;5070908;28;19904;-68
2022/01/05 00:44:27;;;;;;;;;;;4.10;99.90;;;;;;5071159;28;20319;-69
2022/01/05 00:46:53;;;;;;;;;;;4.10;99.90;;;;;;5053155;28;19905;-69
2022/01/05 00:49:19;;;;;;;;;;;4.00;99.90;;;;;;5071146;28;19905;-68
2022/01/05 00:51:44;;;;;;;;;;;4.00;99.90;;;;;;5070802;28;19904;-67
2022/01/05 00:54:10;;;;;;;;;;;4.00;99.90;;;;;;5053035;28;19911;-68
2022/01/05 00:56:35;;;;;;;;;;;4.00;99.90;;;;;;5052952;28;19916;-69
2022/01/05 00:59:01;;;;;;;;;;;4.00;99.90;;;;;;5053102;28;20074;-68
2022/01/05 01:01:26;;;;;;;;;;;4.00;99.90;;;;;;5054611;28;20429;-69
2022/01/05 01:03:52;;;;;;;;;;;4.00;99.90;;;;;;5074698;28;19905;-68
2022/01/05 01:06:18;;;;;;;;;;;4.00;99.90;;;;;;5075067;28;19999;-69
2022/01/05 01:08:43;;;;;;;;;;;3.90;99.90;;;;;;5056944;28;19908;-69
2022/01/05 01:11:09;;;;;;;;;;;3.90;99.90;;;;;;5074831;28;20371;-68
2022/01/05 01:13:34;;;;;;;;;;;3.90;99.90;;;;;;5074611;28;19994;-68
2022/01/05 01:16:00;;;;;;;;;;;3.90;99.90;;;;;;5057128;28;19904;-68
2022/01/05 01:18:25;;;;;;;;;;;3.80;99.90;;;;;;5056780;28;19909;-69
2022/01/05 01:20:51;;;;;;;;;;;3.80;99.90;;;;;;5074472;28;19904;-69
2022/01/05 01:23:20;;;;;;;;;;;3.80;99.90;;;;;;5085173;22;19928;-67
2022/01/05 01:25:46;;;;;;;;;;;3.80;99.90;;;;;;5034781;28;19912;-65
2022/01/05 01:28:11;;;;;;;;;;;3.80;99.90;;;;;;5016629;28;19909;-66
2022/01/05 01:30:37;;;;;;;;;;;3.80;99.90;;;;;;5034015;28;19905;-67
2022/01/05 01:33:02;;;;;;;;;;;3.80;99.90;;;;;;5034956;28;19959;-66
2022/01/05 01:35:28;;;;;;;;;;;3.80;99.90;;;;;;5033950;28;19905;-67
2022/01/05 01:37:53;;;;;;;;;;;3.80;99.90;;;;;;5033940;28;20477;-67
2022/01/05 01:40:19;;;;;;;;;;;3.70;99.90;;;;;;5034000;28;20049;-66
2022/01/05 01:42:45;;;;;;;;;;;3.70;99.90;;;;;;5034891;28;19905;-68
2022/01/05 01:45:11;;;;;;;;;;;3.80;99.90;;;;;;5035232;28;19905;-66
2022/01/05 01:47:36;;;;;;;;;;;3.70;99.90;;;;;;5035178;28;19911;-66
2022/01/05 01:50:02;;;;;;;;;;;3.70;99.90;;;;;;5034910;28;20265;-67
2022/01/05 01:52:27;;;;;;;;;;;3.70;99.90;;;;;;5034911;28;19905;-66
2022/01/05 01:54:53;;;;;;;;;;;3.70;99.90;;;;;;5034957;28;19905;-65
2022/01/05 01:57:20;;;;;;;;;;;3.70;99.90;;;;;;5033437;28;19913;-67
2022/01/05 01:59:46;;;;;;;;;;;3.60;99.90;;;;;;5034839;28;19955;-67
2022/01/05 02:02:16;;;;;;;;;;;3.60;99.90;;;;;;5034055;28;20600;-65
2022/01/05 02:04:43;;;;;;;;;;;3.60;99.90;;;;;;5035534;28;20272;-67
2022/01/05 02:07:09;;;;;;;;;;;3.60;99.90;;;;;;5035103;28;19905;-66
2022/01/05 02:09:34;;;;;;;;;;;3.60;99.90;;;;;;5034893;28;19966;-67
2022/01/05 02:12:00;;;;;;;;;;;3.50;99.90;;;;;;5016860;28;19909;-67
2022/01/05 02:14:25;;;;;;;;;;;3.50;99.90;;;;;;5035461;28;19905;-66
2022/01/05 02:16:51;;;;;;;;;;;3.40;99.90;;;;;;5033329;28;19950;-66
2022/01/05 02:19:16;;;;;;;;;;;3.40;99.90;;;;;;5034584;28;19916;-67
2022/01/05 02:21:42;;;;;;;;;;;3.30;99.90;;;;;;5034258;28;19987;-66
2022/01/05 02:24:09;;;;;;;;;;;3.30;99.90;;;;;;5034149;28;19920;-67
2022/01/05 02:26:35;;;;;;;;;;;3.30;99.90;;;;;;5016743;28;20008;-68
2022/01/05 02:29:00;;;;;;;;;;;3.20;99.90;;;;;;5016406;28;19905;-66
2022/01/05 02:31:26;;;;;;;;;;;3.20;99.90;;;;;;5033183;28;19909;-68
2022/01/05 02:33:52;;;;;;;;;;;3.20;99.90;;;;;;5033908;28;19932;-66
2022/01/05 02:36:20;;;;;;;;;;;3.20;99.90;;;;;;5016388;28;19928;-69
2022/01/05 02:38:46;;;;;;;;;;;3.10;99.90;;;;;;5034092;28;19916;-65
2022/01/05 02:41:12;;;;;;;;;;;3.10;99.90;;;;;;5034205;28;19936;-67
2022/01/05 02:43:39;;;;;;;;;;;3.10;99.90;;;;;;5033830;28;19905;-66
2022/01/05 02:46:05;;;;;;;;;;;3.10;99.90;;;;;;5034004;28;19905;-66
2022/01/05 02:48:32;;;;;;;;;;;3.00;99.90;;;;;;5016306;28;19905;-66
2022/01/05 02:50:58;;;;;;;;;;;3.00;99.90;;;;;;5033917;28;20369;-66
2022/01/05 02:53:24;;;;;;;;;;;2.90;99.90;;;;;;5015943;28;19912;-67
2022/01/05 02:55:49;;;;;;;;;;;2.90;99.90;;;;;;5034109;28;19912;-66
2022/01/05 02:58:15;;;;;;;;;;;2.90;99.90;;;;;;5033948;28;19906;-66
2022/01/05 03:00:40;;;;;;;;;;;2.90;99.90;;;;;;5034273;28;19905;-65
2022/01/05 03:03:06;;;;;;;;;;;2.80;99.90;;;;;;5033563;28;19905;-65
2022/01/05 03:05:31;;;;;;;;;;;2.80;99.90;;;;;;5033883;28;20376;-65
2022/01/05 03:07:57;;;;;;;;;;;2.80;99.90;;;;;;5033603;28;19912;-65
2022/01/05 03:10:22;;;;;;;;;;;2.80;99.90;;;;;;5033610;28;20399;-66
2022/01/05 03:12:48;;;;;;;;;;;2.70;99.90;;;;;;5031843;28;19905;-66
2022/01/05 03:15:13;;;;;;;;;;;2.70;99.90;;;;;;5033586;28;19911;-67
2022/01/05 03:17:39;;;;;;;;;;;2.80;99.90;;;;;;5033461;28;19904;-66
2022/01/05 03:20:05;;;;;;;;;;;2.70;99.90;;;;;;5033315;28;19948;-65
2022/01/05 03:22:30;;;;;;;;;;;2.70;99.90;;;;;;5032848;28;19913;-63
2022/01/05 03:24:56;;;;;;;;;;;2.70;99.90;;;;;;5032963;28;20011;-66
2022/01/05 03:27:21;;;;;;;;;;;2.70;99.90;;;;;;5033374;28;19913;-65
2022/01/05 03:29:47;;;;;;;;;;;2.70;99.90;;;;;;5033215;28;19909;-66
2022/01/05 03:32:12;;;;;;;;;;;2.70;99.90;;;;;;5032706;28;19916;-65
2022/01/05 03:34:38;;;;;;;;;;;2.70;99.90;;;;;;5032896;28;20273;-66
2022/01/05 03:37:04;;;;;;;;;;;2.60;99.90;;;;;;5015364;28;20019;-68
2022/01/05 03:39:30;;;;;;;;;;;2.60;99.90;;;;;;5015304;28;19971;-62
2022/01/05 03:41:55;;;;;;;;;;;2.60;99.90;;;;;;5015010;28;19912;-66
2022/01/05 03:44:22;;;;;;;;;;;2.60;99.90;;;;;;5032868;28;19912;-65
2022/01/05 03:46:47;;;;;;;;;;;2.60;99.90;;;;;;5032804;28;19995;-66
2022/01/05 03:49:13;;;;;;;;;;;2.60;99.90;;;;;;5032753;28;19990;-65
2022/01/05 03:51:38;;;;;;;;;;;2.60;99.90;;;;;;5031142;28;19905;-65
2022/01/05 03:54:04;;;;;;;;;;;2.50;99.90;;;;;;5032293;28;20333;-65
2022/01/05 03:56:30;;;;;;;;;;;2.50;99.90;;;;;;5032820;28;19905;-65
2022/01/05 03:58:55;;;;;;;;;;;2.50;99.90;;;;;;5032542;28;20283;-64
2022/01/05 04:01:20;;;;;;;;;;;2.50;99.90;;;;;;5032426;28;20445;-65
2022/01/05 04:03:46;;;;;;;;;;;2.50;99.90;;;;;;5032446;28;19905;-64
2022/01/05 04:06:11;;;;;;;;;;;2.50;99.90;;;;;;5032462;28;20365;-65
2022/01/05 04:08:37;;;;;;;;;;;2.50;99.90;;;;;;5031326;28;19916;-64
2022/01/05 04:11:03;;;;;;;;;;;2.50;99.90;;;;;;5032662;28;19905;-65
2022/01/05 04:13:28;;;;;;;;;;;2.50;99.90;;;;;;5032323;28;20334;-65
2022/01/05 04:15:53;;;;;;;;;;;2.50;99.90;;;;;;5032416;28;20254;-65
2022/01/05 04:18:19;;;;;;;;;;;2.50;99.90;;;;;;5032285;28;20002;-66
2022/01/05 04:20:44;;;;;;;;;;;2.50;99.90;;;;;;5014571;28;19927;-66
2022/01/05 04:23:10;;;;;;;;;;;2.50;99.90;;;;;;5031722;28;19921;-65
2022/01/05 04:25:35;;;;;;;;;;;2.50;99.90;;;;;;5032622;28;20453;-65
2022/01/05 04:28:02;;;;;;;;;;;2.40;99.90;;;;;;5014633;28;19905;-66
2022/01/05 04:30:28;;;;;;;;;;;2.40;99.90;;;;;;5032433;28;20003;-66
2022/01/05 04:32:53;;;;;;;;;;;2.40;99.90;;;;;;5014353;28;19956;-63
2022/01/05 04:35:19;;;;;;;;;;;2.40;99.90;;;;;;5014555;28;19905;-66
2022/01/05 04:37:44;;;;;;;;;;;2.50;99.90;;;;;;5034896;28;19905;-65
2022/01/05 04:40:10;;;;;;;;;;;2.40;99.90;;;;;;5036136;28;19916;-64
2022/01/05 04:42:36;;;;;;;;;;;2.40;99.90;;;;;;5035888;28;19905;-66
2022/01/05 04:45:02;;;;;;;;;;;2.50;99.90;;;;;;5018366;28;20008;-65
2022/01/05 04:47:27;;;;;;;;;;;2.40;99.90;;;;;;5034725;28;19912;-65
2022/01/05 04:49:53;;;;;;;;;;;2.40;99.90;;;;;;5034606;28;20281;-65
2022/01/05 04:52:18;;;;;;;;;;;2.40;99.90;;;;;;5034409;28;19912;-65
2022/01/05 04:54:44;;;;;;;;;;;2.40;99.90;;;;;;5018264;28;20424;-65
2022/01/05 04:57:09;;;;;;;;;;;2.40;99.90;;;;;;5034522;28;19905;-67
2022/01/05 04:59:35;;;;;;;;;;;2.40;99.90;;;;;;5035851;28;20015;-67
2022/01/05 05:02:00;;;;;;;;;;;2.40;99.90;;;;;;5035504;28;19958;-65
2022/01/05 05:04:26;;;;;;;;;;;2.50;99.90;;;;;;5034217;28;19912;-65
2022/01/05 05:06:51;;;;;;;;;;;2.40;99.90;;;;;;5035556;28;20348;-64
2022/01/05 05:09:17;;;;;;;;;;;2.40;99.90;;;;;;5017906;28;20323;-65
2022/01/05 05:11:43;;;;;;;;;;;2.40;99.90;;;;;;5017801;28;19955;-65
2022/01/05 05:14:09;;;;;;;;;;;2.40;99.90;;;;;;5034355;28;19909;-65
2022/01/05 05:16:34;;;;;;;;;;;2.40;99.90;;;;;;5017174;28;20517;-65
2022/01/05 05:19:00;;;;;;;;;;;2.40;99.90;;;;;;5034954;28;19916;-66
2022/01/05 05:21:25;;;;;;;;;;;2.40;99.90;;;;;;5016948;28;20018;-65
2022/01/05 05:23:51;;;;;;;;;;;2.50;99.90;;;;;;5033156;28;19913;-66
2022/01/05 05:26:16;;;;;;;;;;;2.50;99.90;;;;;;5034460;28;19960;-65
2022/01/05 05:28:42;;;;;;;;;;;2.50;99.90;;;;;;5016941;28;19913;-62
2022/01/05 05:31:07;;;;;;;;;;;2.50;99.90;;;;;;5016676;28;19905;-65
2022/01/05 05:33:33;;;;;;;;;;;2.60;99.90;;;;;;5033955;28;19954;-64
2022/01/05 05:35:58;;;;;;;;;;;2.60;99.90;;;;;;5034463;28;19909;-65
2022/01/05 05:38:24;;;;;;;;;;;2.70;99.90;;;;;;5032962;28;19994;-63
2022/01/05 05:40:50;;;;;;;;;;;2.70;99.90;;;;;;5033160;28;19982;-64
2022/01/05 05:43:15;;;;;;;;;;;2.70;99.90;;;;;;5034399;28;19924;-63
2022/01/05 05:45:41;;;;;;;;;;;2.70;99.90;;;;;;5017032;28;20012;-65
2022/01/05 05:48:06;;;;;;;;;;;2.60;99.90;;;;;;5016449;28;19905;-65
2022/01/05 05:50:32;;;;;;;;;;;2.60;99.90;;;;;;5034759;28;19966;-64
2022/01/05 05:52:57;;;;;;;;;;;2.60;99.90;;;;;;5034404;28;19985;-65
2022/01/05 05:55:23;;;;;;;;;;;2.60;99.90;;;;;;5016823;28;19905;-64
2022/01/05 05:57:48;;;;;;;;;;;2.60;99.90;;;;;;5034573;28;19988;-66
2022/01/05 06:00:14;;;;;;;;;;;2.60;99.90;;;;;;5033176;28;19963;-66
2022/01/05 06:02:39;;;;;;;;;;;2.60;99.90;;;;;;5032708;28;19917;-66
2022/01/05 06:05:05;;;;;;;;;;;2.60;99.90;;;;;;5034477;28;20365;-66
2022/01/05 06:07:31;;;;;;;;;;;2.70;99.90;;;;;;5034246;28;19951;-65
2022/01/05 06:09:58;;;;;;;;;;;2.60;99.90;;;;;;5034396;28;19905;-65
2022/01/05 06:12:24;;;;;;;;;;;2.60;99.90;;;;;;5034166;28;19905;-65
2022/01/05 06:14:49;;;;;;;;;;;2.60;99.90;;;;;;5027295;28;20019;-65
2022/01/05 06:17:15;;;;;;;;;;;2.60;99.90;;;;;;5028729;28;19996;-66
2022/01/05 06:19:41;;;;;;;;;;;2.60;99.90;;;;;;5015266;28;20358;-65
2022/01/05 06:22:06;;;;;;;;;;;2.60;99.90;;;;;;5014024;28;19909;-65
2022/01/05 06:24:32;;;;;;;;;;;2.60;99.90;;;;;;5012619;28;20342;-65
2022/01/05 06:26:57;;;;;;;;;;;2.60;99.90;;;;;;5014588;28;19912;-65
2022/01/05 06:29:23;;;;;;;;;;;2.70;99.90;;;;;;5012942;28;19913;-65
2022/01/05 06:31:48;;;;;;;;;;;2.60;99.90;;;;;;5026849;28;19909;-66
2022/01/05 06:34:14;;;;;;;;;;;2.60;99.90;;;;;;5016105;28;20329;-65
2022/01/05 06:36:42;;;;;;;;;;;2.60;99.90;;;;;;5034292;28;19905;-65
2022/01/05 06:39:07;;;;;;;;;;;2.60;99.90;;;;;;5033909;28;19909;-65
2022/01/05 06:41:33;;;;;;;;;;;2.70;99.90;;;;;;5033952;28;20336;-62
2022/01/05 06:43:58;;;;;;;;;;;2.70;99.90;;;;;;5033978;28;19905;-65
2022/01/05 06:46:24;;;;;;;;;;;2.60;99.90;;;;;;5015993;28;19905;-65
2022/01/05 06:48:49;;;;;;;;;;;2.70;99.90;;;;;;5021146;28;19948;-64
2022/01/05 06:51:15;;;;;;;;;;;2.70;99.90;;;;;;5012840;28;19914;-65
2022/01/05 06:53:40;;;;;;;;;;;2.70;99.90;;;;;;5012884;28;20401;-65
2022/01/05 06:56:06;;;;;;;;;;;2.70;99.90;;;;;;5014067;28;19972;-65
2022/01/05 06:58:32;;;;;;;;;;;2.70;99.90;;;;;;5011857;28;19959;-65
2022/01/05 07:00:57;;;;;;;;;;;2.70;99.90;;;;;;5013655;28;19912;-63
2022/01/05 07:03:22;;;;;;;;;;;2.70;99.90;;;;;;5013406;28;20389;-65
2022/01/05 07:05:48;;;;;;;;;;;2.70;99.90;;;;;;5013395;28;19910;-65
2022/01/05 07:08:14;;;;;;;;;;;2.70;99.90;;;;;;5013521;28;19916;-65
2022/01/05 07:10:40;;;;;;;;;;;2.80;99.90;;;;;;5012052;28;19905;-65
2022/01/05 07:13:05;;;;;;;;;;;2.80;99.90;;;;;;5013034;28;19906;-65
2022/01/05 07:15:31;;;;;;;;;;;2.80;99.90;;;;;;5019616;28;19911;-65
2022/01/05 07:17:56;;;;;;;;;;;2.80;99.90;;;;;;5032996;28;19911;-65
2022/01/05 07:20:22;;;;;;;;;;;2.80;99.90;;;;;;5033137;28;19966;-65
2022/01/05 07:25:33;;;;;;;;;;;2.90;99.90;;;;;;5050228;28;19928;-69
2022/01/05 07:27:59;;;;;;;;;;;2.90;99.90;;;;;;5049455;28;19905;-69
2022/01/05 07:30:24;;;;;;;;;;;2.90;99.90;;;;;;5051900;28;19913;-67
2022/01/05 07:32:50;;;;;;;;;;;2.90;99.90;;;;;;5051839;28;19947;-68
2022/01/05 07:35:15;;;;;;;;;;;2.90;99.90;;;;;;5034108;28;19913;-69
2022/01/05 07:37:41;;;;;;;;;;;2.90;99.90;;;;;;5041478;28;19905;-69
2022/01/05 07:40:07;;;;;;;;;;;2.90;99.90;;;;;;5031308;28;19944;-69
2022/01/05 07:42:34;;;;;;;;;;;3.00;99.90;;;;;;5032506;28;20390;-68
2022/01/05 07:45:00;;;;;;;;;;;3.10;99.90;;;;;;5030658;28;19905;-70
2022/01/05 07:47:25;;;;;;;;;;;3.10;99.90;;;;;;5031929;28;19949;-70
2022/01/05 07:49:51;;;;;;;;;;;3.10;99.90;;;;;;5033259;28;19905;-68
2022/01/05 07:52:16;;;;;;;;;;;3.10;99.90;;;;;;5046777;28;20302;-70
2022/01/05 07:54:42;;;;;;;;;;;3.10;99.90;;;;;;5033592;28;20285;-71
2022/01/05 07:57:07;;;;;;;;;;;3.10;99.90;;;;;;5049067;28;19912;-70
2022/01/05 07:59:33;;;;;;;;;;;3.10;99.90;;;;;;5049817;28;20316;-71
2022/01/05 08:01:58;;;;;;;;;;;3.20;99.90;;;;;;5028512;28;19911;-70
2022/01/05 08:04:24;;;;;;;;;;;3.20;99.90;;;;;;5051602;28;19905;-70
2022/01/05 08:06:49;;;;;;;;;;;3.20;99.90;;;;;;5043313;28;20428;-71
2022/01/05 08:09:15;;;;;;;;;;;3.30;99.90;;;;;;5022905;28;19913;-70
2022/01/05 08:11:40;;;;;;;;;;;3.30;99.90;;;;;;5029089;28;19954;-70
2022/01/05 08:14:06;;;;;;;;;;;3.30;99.90;;;;;;5023839;28;19905;-71
2022/01/05 08:16:31;;;;;;;;;;;3.30;99.90;;;;;;5027650;28;19908;-70
2022/01/05 08:18:57;;;;;;;;;;;3.30;99.90;;;;;;5049200;28;19943;-71
2022/01/05 08:21:22;;;;;;;;;;;3.40;99.90;;;;;;5039436;28;20335;-70
2022/01/05 08:23:48;;;;;;;;;;;3.40;99.90;;;;;;5040245;28;19917;-70
2022/01/05 08:26:14;;;;;;;;;;;3.30;99.90;;;;;;5039670;28;19905;-71
2022/01/05 08:28:39;;;;;;;;;;;3.40;99.90;;;;;;5057386;28;19904;-70
2022/01/05 08:31:05;;;;;;;;;;;3.40;99.90;;;;;;5043162;28;19950;-71
2022/01/05 08:33:30;;;;;;;;;;;3.50;99.90;;;;;;5048634;28;19916;-69
2022/01/05 08:35:56;;;;;;;;;;;3.40;99.90;;;;;;5051006;28;19992;-69
2022/01/05 08:38:21;;;;;;;;;;;3.30;99.90;;;;;;5033032;28;19904;-69
2022/01/05 08:40:49;;;;;;;;;;;3.20;99.90;;;;;;5050897;28;20296;-70
2022/01/05 08:43:15;;;;;;;;;;;3.20;99.90;;;;;;5032591;28;19908;-70
2022/01/05 08:45:41;;;;;;;;;;;3.10;99.90;;;;;;5050426;28;19970;-70
2022/01/05 08:48:07;;;;;;;;;;;3.00;99.90;;;;;;5050993;28;19974;-71
2022/01/05 08:50:34;;;;;;;;;;;2.90;99.90;;;;;;5050726;28;19908;-71
2022/01/05 08:53:02;;;;;;;;;;;2.90;99.90;;;;;;5050677;28;19905;-70
2022/01/05 08:55:30;;;;;;;;;;;2.90;99.90;;;;;;5032914;28;19909;-71
2022/01/05 08:57:56;;;;;;;;;;;3.00;99.90;;;;;;5029629;28;19940;-70
2022/01/05 09:00:21;;;;;;;;;;;3.00;99.90;;;;;;5029660;28;19963;-70
2022/01/05 09:02:47;;;;;;;;;;;2.90;99.90;;;;;;5030854;28;19909;-71
2022/01/05 09:05:13;;;;;;;;;;;2.80;99.90;;;;;;5031108;28;19974;-71
2022/01/05 09:07:41;;;;;;;;;;;2.70;99.90;;;;;;5031939;28;19909;-69
2022/01/05 09:10:06;;;;;;;;;;;2.70;99.90;;;;;;5030112;28;19905;-69
2022/01/05 09:12:33;;;;;;;;;;;2.70;99.90;;;;;;5030922;28;19905;-70
2022/01/05 09:14:59;;;;;;;;;;;2.70;99.90;;;;;;5030938;28;19909;-69
2022/01/05 09:17:25;;;;;;;;;;;2.70;99.90;;;;;;5050763;28;19911;-70
2022/01/05 09:19:50;;;;;;;;;;;2.70;99.90;;;;;;5050890;28;20019;-70
2022/01/05 09:22:16;;;;;;;;;;;2.70;99.90;;;;;;5052457;28;19905;-70
2022/01/05 09:24:42;;;;;;;;;;;2.70;99.90;;;;;;5036504;28;20366;-70
2022/01/05 09:27:07;;;;;;;;;;;2.70;99.90;;;;;;5037525;28;20006;-70
2022/01/05 09:29:34;;;;;;;;;;;2.70;99.90;;;;;;5054403;28;19912;-70
2022/01/05 09:32:04;;;;;;;;;;;2.80;99.90;;;;;;5036209;28;19911;-69
2022/01/05 09:34:33;;;;;;;;;;;2.90;99.90;;;;;;5036464;28;19927;-68
2022/01/05 09:37:05;;;;;;;;;;;3.00;99.90;;;;;;5054521;28;19904;-68
2022/01/05 09:42:14;;;;;;;;;;;3.20;99.90;;;;;;5059415;28;20371;-69
2022/01/05 09:44:44;;;;;;;;;;;3.30;99.90;;;;;;5053788;28;19905;-69
2022/01/05 09:47:29;;;;;;;;;;;3.20;99.90;;;;;;5054070;28;19912;-68
2022/01/05 09:50:03;;;;;;;;;;;3.20;99.90;;;;;;5053740;28;19905;-69
2022/01/05 09:52:30;;;;;;;;;;;3.20;99.90;;;;;;5035617;28;20547;-70
2022/01/05 09:54:55;;;;;;;;;;;3.20;99.90;;;;;;5053752;28;19912;-71
2022/01/05 09:57:21;;;;;;;;;;;3.20;99.90;;;;;;5035851;28;19905;-70
2022/01/05 09:59:47;;;;;;;;;;;3.10;99.90;;;;;;5035607;28;19909;-70
2022/01/05 10:02:14;;;;;;;;;;;3.00;99.90;;;;;;5053530;28;19911;-70
2022/01/05 10:04:40;;;;;;;;;;;2.90;99.90;;;;;;5049034;28;20003;-69
2022/01/05 10:07:05;;;;;;;;;;;2.80;99.90;;;;;;5023067;28;19909;-70
2022/01/05 10:09:31;;;;;;;;;;;2.90;99.90;;;;;;5053822;28;20305;-69
2022/01/05 10:11:56;;;;;;;;;;;2.90;99.90;;;;;;5053326;28;20361;-69
2022/01/05 10:14:22;;;;;;;;;;;2.90;99.90;;;;;;5053463;28;19905;-69
2022/01/05 10:17:07;;;;;;;;;;;2.80;99.90;;;;;;5053526;28;19954;-69
2022/01/05 10:19:34;;;;;;;;;;;2.80;99.90;;;;;;5053088;28;19908;-69
2022/01/05 10:21:59;;;;;;;;;;;2.80;99.90;;;;;;5053014;28;20428;-70
2022/01/05 10:24:40;;;;;;;;;;;2.80;99.90;;;;;;5034952;28;20027;-70
2022/01/05 10:27:06;;;;;;;;;;;2.60;99.90;;;;;;5051765;28;19905;-70
2022/01/05 10:29:31;;;;;;;;;;;2.60;99.90;;;;;;5053065;28;19992;-69
2022/01/05 10:31:57;;;;;;;;;;;2.60;99.90;;;;;;5052510;28;19905;-70
2022/01/05 10:34:25;;;;;;;;;;;2.60;99.90;;;;;;5051693;28;19949;-69
2022/01/05 10:36:55;;;;;;;;;;;2.70;99.90;;;;;;5046732;28;19909;-69
2022/01/05 10:39:27;;;;;;;;;;;2.70;99.90;;;;;;5032016;28;19909;-69
2022/01/05 10:41:53;;;;;;;;;;;2.70;99.90;;;;;;5057101;28;20311;-70
2022/01/05 10:44:22;;;;;;;;;;;2.70;99.90;;;;;;5033221;28;19946;-70
2022/01/05 10:46:48;;;;;;;;;;;2.70;99.90;;;;;;5031471;28;19913;-69
2022/01/05 10:49:24;;;;;;;;;;;2.80;99.90;;;;;;5015803;28;19951;-68
2022/01/05 10:51:50;;;;;;;;;;;2.80;99.90;;;;;;5033426;28;19955;-69
2022/01/05 10:54:16;;;;;;;;;;;2.80;99.90;;;;;;5035234;28;20356;-69
2022/01/05 10:56:42;;;;;;;;;;;2.80;99.90;;;;;;5051347;28;19912;-69
2022/01/05 10:59:09;;;;;;;;;;;2.90;99.90;;;;;;5034458;28;19913;-69
2022/01/05 11:01:34;;;;;;;;;;;2.90;99.90;;;;;;5015457;28;19944;-68
2022/01/05 11:04:14;;;;;;;;;;;2.90;99.90;;;;;;5015118;28;20325;-68
2022/01/05 11:06:52;;;;;;;;;;;3.00;99.90;;;;;;5029912;28;19947;-69
2022/01/05 11:09:19;;;;;;;;;;;2.90;99.90;;;;;;5029985;28;19906;-68
2022/01/05 11:11:46;;;;;;;;;;;2.90;99.90;;;;;;5030592;28;19909;-69
2022/01/05 11:14:13;;;;;;;;;;;2.90;99.90;;;;;;5032952;28;19912;-68
2022/01/05 11:16:39;;;;;;;;;;;3.00;99.90;;;;;;5026907;28;19909;-69
2022/01/05 11:19:22;;;;;;;;;;;3.00;99.90;;;;;;5051375;28;19916;-69
2022/01/05 11:22:02;;;;;;;;;;;3.10;99.90;;;;;;5051524;28;19924;-69
2022/01/05 11:24:28;;;;;;;;;;;3.10;99.90;;;;;;5051878;28;19920;-68
2022/01/05 11:26:54;;;;;;;;;;;3.20;99.90;;;;;;5052042;28;20391;-70
2022/01/05 11:29:20;;;;;;;;;;;3.10;99.90;;;;;;5051889;28;19912;-69
2022/01/05 11:31:46;;;;;;;;;;;3.10;99.90;;;;;;5051797;28;19904;-68
2022/01/05 11:34:11;;;;;;;;;;;3.00;99.90;;;;;;5051769;28;19905;-70
2022/01/05 11:36:41;;;;;;;;;;;3.10;99.90;;;;;;5051477;28;19905;-69
2022/01/05 11:39:06;;;;;;;;;;;3.00;99.90;;;;;;5050513;28;20296;-69
2022/01/05 11:41:32;;;;;;;;;;;3.00;99.90;;;;;;5050335;28;19904;-70
2022/01/05 11:43:59;;;;;;;;;;;3.00;99.90;;;;;;5051855;28;20280;-70
2022/01/05 11:46:28;;;;;;;;;;;3.10;99.90;;;;;;5049938;28;19980;-69
2022/01/05 11:49:01;;;;;;;;;;;3.30;99.90;;;;;;5051684;28;19950;-70
2022/01/05 11:51:42;;;;;;;;;;;3.30;99.90;;;;;;5051694;28;19909;-68
2022/01/05 11:54:15;;;;;;;;;;;3.30;99.90;;;;;;5053108;28;19967;-69
2022/01/05 11:56:45;;;;;;;;;;;3.10;99.90;;;;;;5034738;28;19905;-70
2022/01/05 11:59:20;;;;;;;;;;;3.00;99.90;;;;;;5053683;28;19978;-71
2022/01/05 12:02:01;;;;;;;;;;;2.90;99.90;;;;;;5053574;28;20284;-70
2022/01/05 12:04:27;;;;;;;;;;;2.80;99.90;;;;;;5051875;28;19959;-69
2022/01/05 12:06:55;;;;;;;;;;;2.80;99.90;;;;;;5051222;28;19997;-70
2022/01/05 12:09:23;;;;;;;;;;;2.70;99.90;;;;;;5049606;28;20013;-70
2022/01/05 12:11:49;;;;;;;;;;;2.70;99.90;;;;;;5050837;28;19987;-71
2022/01/05 12:14:17;;;;;;;;;;;2.70;99.90;;;;;;5051372;28;19939;-71
2022/01/05 12:17:01;;;;;;;;;;;2.80;99.90;;;;;;5051002;28;19909;-71
2022/01/05 12:19:27;;;;;;;;;;;2.80;99.90;;;;;;5049639;28;19909;-71
2022/01/05 12:21:53;;;;;;;;;;;2.80;99.90;;;;;;5050267;28;20379;-71
2022/01/05 12:24:19;;;;;;;;;;;2.80;99.90;;;;;;5048979;28;19913;-70
2022/01/05 12:27:05;;;;;;;;;;;2.90;99.90;;;;;;5051132;28;19909;-70
2022/01/05 12:29:31;;;;;;;;;;;3.00;99.90;;;;;;5050893;28;19932;-71
2022/01/05 12:31:58;;;;;;;;;;;3.00;99.90;;;;;;5049735;28;19908;-70
2022/01/05 12:34:56;;;;;;;;;;;3.10;99.90;;;;;;5051263;28;20004;-70
2022/01/05 12:37:41;;;;;;;;;;;3.10;99.90;;;;;;5035099;28;19913;-70
2022/01/05 12:40:27;;;;;;;;;;;3.20;99.90;;;;;;5049577;28;19913;-70
2022/01/05 12:43:22;;;;;;;;;;;3.20;99.90;;;;;;5049539;28;19991;-70
2022/01/05 12:45:47;;;;;;;;;;;3.30;99.90;;;;;;5008780;28;19905;-71
2022/01/05 12:48:39;;;;;;;;;;;3.30;99.90;;;;;;5051014;28;20250;-70
2022/01/05 12:51:14;;;;;;;;;;;3.40;99.90;;;;;;5052932;28;19965;-70
2022/01/05 12:53:52;;;;;;;;;;;3.50;99.90;;;;;;5050476;28;20385;-69
2022/01/05 12:56:22;;;;;;;;;;;3.50;99.90;;;;;;5050945;28;19915;-69
2022/01/05 12:58:48;;;;;;;;;;;3.60;99.90;;;;;;5036864;28;19916;-70
2022/01/05 13:01:14;;;;;;;;;;;3.70;99.90;;;;;;5034594;28;19905;-70
2022/01/05 13:03:40;;;;;;;;;;;3.80;99.90;;;;;;5049477;28;19909;-70
2022/01/05 13:06:33;;;;;;;;;;;3.90;99.90;;;;;;5034639;28;20479;-71
2022/01/05 13:09:07;;;;;;;;;;;4.00;99.90;;;;;;5031249;28;19909;-70
2022/01/05 13:11:51;;;;;;;;;;;4.20;99.90;;;;;;5034407;28;19905;-70
2022/01/05 13:14:18;;;;;;;;;;;4.20;99.90;;;;;;5016860;28;19912;-70
2022/01/05 13:16:48;;;;;;;;;;;4.20;99.90;;;;;;5034668;28;19908;-70
2022/01/05 13:19:32;;;;;;;;;;;4.20;99.90;;;;;;5034640;28;20288;-70
2022/01/05 13:21:59;;;;;;;;;;;4.20;99.90;;;;;;5034290;28;19916;-69
2022/01/05 13:24:39;;;;;;;;;;;4.30;99.90;;;;;;5061771;23;20285;-65
2022/01/05 13:27:06;;;;;;;;;;;4.30;99.90;;;;;;5054199;28;19995;-65
2022/01/05 13:29:32;;;;;;;;;;;4.40;99.90;;;;;;5055240;28;19936;-66
2022/01/05 13:32:00;;;;;;;;;;;4.50;99.90;;;;;;5037145;28;19966;-67
2022/01/05 13:34:35;;;;;;;;;;;4.60;99.90;;;;;;5055507;28;19950;-66
2022/01/05 13:37:01;;;;;;;;;;;4.60;99.90;;;;;;5055078;28;19986;-66
2022/01/05 13:39:33;;;;;;;;;;;4.60;99.90;;;;;;5053298;28;19912;-65
2022/01/05 13:41:59;;;;;;;;;;;4.70;99.90;;;;;;5054766;28;19988;-65
2022/01/05 13:44:24;;;;;;;;;;;4.70;99.90;;;;;;5036708;28;19944;-64
2022/01/05 13:46:50;;;;;;;;;;;4.70;99.90;;;;;;5036854;28;20288;-65
2022/01/05 13:49:15;;;;;;;;;;;4.70;99.90;;;;;;5036689;28;19908;-65
2022/01/05 13:51:41;;;;;;;;;;;4.80;99.90;;;;;;5054595;28;19905;-65
2022/01/05 13:54:09;;;;;;;;;;;4.70;99.90;;;;;;5054236;28;19911;-65
2022/01/05 13:56:40;;;;;;;;;;;4.70;99.90;;;;;;5054365;28;19932;-65
2022/01/05 13:59:06;;;;;;;;;;;4.80;99.90;;;;;;5036804;28;19920;-64
2022/01/05 14:01:33;;;;;;;;;;;4.80;99.90;;;;;;5054483;28;19904;-65
2022/01/05 14:04:06;;;;;;;;;;;4.80;99.90;;;;;;5054088;28;19939;-65
2022/01/05 14:06:32;;;;;;;;;;;4.80;99.90;;;;;;5054450;28;19912;-65
2022/01/05 14:08:57;;;;;;;;;;;4.80;99.90;;;;;;5031169;28;19909;-69
2022/01/05 14:11:24;;;;;;;;;;;4.90;99.90;;;;;;5034546;28;20313;-69
2022/01/05 14:13:55;;;;;;;;;;;4.90;99.90;;;;;;5021416;28;20380;-68
2022/01/05 14:16:27;;;;;;;;;;;4.90;99.90;;;;;;5036757;28;19905;-66
2022/01/05 14:18:57;;;;;;;;;;;4.90;99.90;;;;;;5054623;28;19958;-64
2022/01/05 14:21:29;;;;;;;;;;;5.00;99.90;;;;;;5054425;28;20377;-66
2022/01/05 14:23:55;;;;;;;;;;;5.00;99.90;;;;;;5053114;28;19904;-64
2022/01/05 14:26:28;;;;;;;;;;;5.10;99.90;;;;;;5048735;28;19966;-66
2022/01/05 14:28:58;;;;;;;;;;;5.10;99.90;;;;;;5036464;28;20467;-66
2022/01/05 14:31:32;;;;;;;;;;;5.10;99.90;;;;;;5052455;28;20292;-66
2022/01/05 14:33:57;;;;;;;;;;;5.10;99.90;;;;;;5078908;28;19909;-66
2022/01/05 14:36:27;;;;;;;;;;;5.20;99.90;;;;;;5043938;28;20266;-66